BAW2 KJFK-EGLL
Flight info
| Callsign | BAW2 |
|---|---|
| Flight time | N/A |
| Altitude | 60000 |
| Route | JFK5 SHIPP DCT LINND DCT 3952N06815W 4025N06700W/M080F350 4307N06000W/N0459F350 4510N05230W/M080F350 4554N05000W 4810N04000W 4926N03000W 4949N02000W 4941N01500W DCT LULOX/N0459F350 DCT 513130N0041712W 513836N0034800W 513636N0031700W DCT NIGIT DCT OCK |
| Aircraft | CONC/H-SDE2E3FGHIRYW/X |
Departure
| Time | 2026-04-30 12:32 |
|---|---|
| Airport | John F. Kennedy International Airport (KJFK) |
Arrival
| Time | N/A |
|---|---|
| Airport | London Heathrow Airport (EGLL) |
| Time | Latitude | Longitude | Altitude | Speed | Heading |
|---|---|---|---|---|---|
| 2026-04-30 11:33 | 40.64976 | -73.79246 | 18 ft | 0 kts | 330° |
| 2026-04-30 11:34 | 40.64976 | -73.79245 | 18 ft | 0 kts | 330° |
| 2026-04-30 12:15 | 40.64976 | -73.79246 | 18 ft | 0 kts | 330° |
| 2026-04-30 12:15 | 40.64967 | -73.79239 | 18 ft | 2 kts | 330° |
| 2026-04-30 12:16 | 40.64954 | -73.79230 | 18 ft | 2 kts | 330° |
| 2026-04-30 12:16 | 40.64946 | -73.79224 | 18 ft | 2 kts | 330° |
| 2026-04-30 12:16 | 40.64936 | -73.79210 | 18 ft | 2 kts | 298° |
| 2026-04-30 12:16 | 40.64932 | -73.79190 | 18 ft | 2 kts | 270° |
| 2026-04-30 12:17 | 40.64938 | -73.79163 | 18 ft | 0 kts | 240° |
| 2026-04-30 12:19 | 40.64937 | -73.79166 | 18 ft | 0 kts | 240° |
| 2026-04-30 12:19 | 40.64932 | -73.79179 | 18 ft | 2 kts | 240° |
| 2026-04-30 12:19 | 40.64920 | -73.79205 | 18 ft | 3 kts | 240° |
| 2026-04-30 12:20 | 40.64904 | -73.79242 | 18 ft | 5 kts | 239° |
| 2026-04-30 12:20 | 40.64881 | -73.79295 | 18 ft | 6 kts | 240° |
| 2026-04-30 12:20 | 40.64854 | -73.79360 | 18 ft | 8 kts | 242° |
| 2026-04-30 12:20 | 40.64820 | -73.79441 | 18 ft | 10 kts | 240° |
| 2026-04-30 12:21 | 40.64782 | -73.79529 | 18 ft | 11 kts | 240° |
| 2026-04-30 12:21 | 40.64751 | -73.79619 | 18 ft | 8 kts | 281° |
| 2026-04-30 12:21 | 40.64778 | -73.79679 | 18 ft | 6 kts | 321° |
| 2026-04-30 12:21 | 40.64828 | -73.79702 | 18 ft | 8 kts | 349° |
| 2026-04-30 12:22 | 40.64879 | -73.79705 | 18 ft | 6 kts | 2° |
| 2026-04-30 12:22 | 40.64933 | -73.79703 | 18 ft | 8 kts | 1° |
| 2026-04-30 12:22 | 40.64998 | -73.79691 | 18 ft | 9 kts | 21° |
| 2026-04-30 12:22 | 40.65058 | -73.79643 | 18 ft | 10 kts | 45° |
| 2026-04-30 12:23 | 40.65099 | -73.79564 | 18 ft | 9 kts | 69° |
| 2026-04-30 12:23 | 40.65131 | -73.79474 | 18 ft | 11 kts | 62° |
| 2026-04-30 12:23 | 40.65174 | -73.79378 | 18 ft | 12 kts | 59° |
| 2026-04-30 12:23 | 40.65209 | -73.79266 | 18 ft | 13 kts | 84° |
| 2026-04-30 12:24 | 40.65189 | -73.79135 | 18 ft | 14 kts | 110° |
| 2026-04-30 12:24 | 40.65153 | -73.78999 | 18 ft | 16 kts | 105° |
| 2026-04-30 12:24 | 40.65138 | -73.78839 | 18 ft | 17 kts | 88° |
| 2026-04-30 12:24 | 40.65176 | -73.78682 | 18 ft | 17 kts | 63° |
| 2026-04-30 12:25 | 40.65239 | -73.78533 | 18 ft | 19 kts | 62° |
| 2026-04-30 12:25 | 40.65252 | -73.78354 | 18 ft | 19 kts | 108° |
| 2026-04-30 12:25 | 40.65178 | -73.78184 | 18 ft | 21 kts | 122° |
| 2026-04-30 12:25 | 40.65100 | -73.78013 | 18 ft | 22 kts | 119° |
| 2026-04-30 12:26 | 40.65017 | -73.77830 | 18 ft | 23 kts | 127° |
| 2026-04-30 12:26 | 40.64906 | -73.77649 | 18 ft | 25 kts | 129° |
| 2026-04-30 12:26 | 40.64825 | -73.77496 | 18 ft | 12 kts | 88° |
| 2026-04-30 12:26 | 40.64815 | -73.77391 | 18 ft | 11 kts | 111° |
| 2026-04-30 12:27 | 40.64772 | -73.77285 | 18 ft | 13 kts | 121° |
| 2026-04-30 12:27 | 40.64774 | -73.77182 | 18 ft | 11 kts | 56° |
| 2026-04-30 12:27 | 40.64823 | -73.77082 | 18 ft | 13 kts | 56° |
| 2026-04-30 12:27 | 40.64877 | -73.76974 | 18 ft | 14 kts | 56° |
| 2026-04-30 12:28 | 40.64939 | -73.76858 | 18 ft | 15 kts | 53° |
| 2026-04-30 12:28 | 40.64980 | -73.76736 | 18 ft | 8 kts | 113° |
| 2026-04-30 12:28 | 40.64960 | -73.76665 | 18 ft | 6 kts | 91° |
| 2026-04-30 12:28 | 40.64986 | -73.76621 | 18 ft | 6 kts | 41° |
| 2026-04-30 12:29 | 40.65031 | -73.76575 | 18 ft | 9 kts | 34° |
| 2026-04-30 12:29 | 40.65089 | -73.76513 | 18 ft | 10 kts | 76° |
| 2026-04-30 12:29 | 40.65087 | -73.76467 | 18 ft | 0 kts | 107° |
| 2026-04-30 12:29 | 40.65081 | -73.76440 | 18 ft | 5 kts | 110° |
| 2026-04-30 12:30 | 40.65053 | -73.76380 | 18 ft | 9 kts | 134° |
| 2026-04-30 12:30 | 40.64981 | -73.76382 | 18 ft | 11 kts | 211° |
| 2026-04-30 12:30 | 40.64962 | -73.76398 | 18 ft | 0 kts | 211° |
| 2026-04-30 12:31 | 40.64958 | -73.76401 | 18 ft | 6 kts | 211° |
| 2026-04-30 12:31 | 40.64754 | -73.76559 | 18 ft | 68 kts | 209° |
| 2026-04-30 12:31 | 40.64032 | -73.77114 | 18 ft | 154 kts | 210° |
| 2026-04-30 12:31 | 40.62771 | -73.78075 | 39 ft | 228 kts | 208° |
| 2026-04-30 12:32 | 40.61298 | -73.79160 | 673 ft | 257 kts | 206° |
| 2026-04-30 12:32 | 40.59732 | -73.80176 | 691 ft | 259 kts | 200° |
| 2026-04-30 12:32 | 40.58013 | -73.80479 | 251 ft | 258 kts | 163° |
| 2026-04-30 12:32 | 40.56603 | -73.79348 | 465 ft | 257 kts | 121° |
| 2026-04-30 12:33 | 40.56060 | -73.77150 | 999 ft | 264 kts | 88° |
| 2026-04-30 12:33 | 40.56156 | -73.74810 | 1494 ft | 268 kts | 87° |
| 2026-04-30 12:33 | 40.56234 | -73.72504 | 1854 ft | 270 kts | 93° |
| 2026-04-30 12:33 | 40.56089 | -73.70158 | 2416 ft | 271 kts | 96° |
| 2026-04-30 12:34 | 40.55883 | -73.67760 | 3246 ft | 279 kts | 96° |
| 2026-04-30 12:34 | 40.55667 | -73.65332 | 3585 ft | 284 kts | 96° |
| 2026-04-30 12:34 | 40.55402 | -73.62834 | 3801 ft | 286 kts | 108° |
| 2026-04-30 12:34 | 40.54507 | -73.60610 | 3990 ft | 283 kts | 134° |
| 2026-04-30 12:35 | 40.53152 | -73.58778 | 4059 ft | 284 kts | 133° |
| 2026-04-30 12:35 | 40.51930 | -73.56811 | 4618 ft | 280 kts | 128° |
| 2026-04-30 12:35 | 40.50775 | -73.54849 | 5677 ft | 276 kts | 130° |
| 2026-04-30 12:35 | 40.49626 | -73.52967 | 6643 ft | 271 kts | 130° |
| 2026-04-30 12:36 | 40.48526 | -73.51125 | 7321 ft | 277 kts | 130° |
| 2026-04-30 12:36 | 40.47369 | -73.49176 | 7723 ft | 292 kts | 130° |
| 2026-04-30 12:36 | 40.46161 | -73.47145 | 8152 ft | 302 kts | 131° |
| 2026-04-30 12:36 | 40.44952 | -73.45091 | 8529 ft | 303 kts | 131° |
| 2026-04-30 12:37 | 40.43694 | -73.42953 | 8903 ft | 303 kts | 131° |
| 2026-04-30 12:37 | 40.42468 | -73.40864 | 9271 ft | 304 kts | 131° |
| 2026-04-30 12:37 | 40.41239 | -73.38769 | 9644 ft | 305 kts | 131° |
| 2026-04-30 12:37 | 40.40005 | -73.36659 | 10019 ft | 307 kts | 131° |
| 2026-04-30 12:38 | 40.38726 | -73.34476 | 10437 ft | 320 kts | 132° |
| 2026-04-30 12:38 | 40.37377 | -73.32206 | 10893 ft | 335 kts | 133° |
| 2026-04-30 12:38 | 40.35931 | -73.29778 | 11378 ft | 353 kts | 132° |
| 2026-04-30 12:38 | 40.34436 | -73.27245 | 11934 ft | 368 kts | 132° |
| 2026-04-30 12:39 | 40.32882 | -73.24592 | 12959 ft | 368 kts | 132° |
| 2026-04-30 12:39 | 40.31390 | -73.22041 | 13933 ft | 367 kts | 133° |
| 2026-04-30 12:39 | 40.29892 | -73.19476 | 14888 ft | 363 kts | 134° |
| 2026-04-30 12:39 | 40.28389 | -73.16988 | 15818 ft | 356 kts | 132° |
| 2026-04-30 12:40 | 40.26972 | -73.14477 | 16471 ft | 359 kts | 133° |
| 2026-04-30 12:40 | 40.25451 | -73.11842 | 16642 ft | 375 kts | 133° |
| 2026-04-30 12:40 | 40.23834 | -73.09096 | 16761 ft | 395 kts | 133° |
| 2026-04-30 12:40 | 40.22185 | -73.06275 | 16939 ft | 416 kts | 133° |
| 2026-04-30 12:41 | 40.20374 | -73.03179 | 17145 ft | 442 kts | 132° |
| 2026-04-30 12:41 | 40.18410 | -72.99847 | 17350 ft | 472 kts | 132° |
| 2026-04-30 12:41 | 40.16337 | -72.96332 | 17461 ft | 509 kts | 132° |
| 2026-04-30 12:41 | 40.14125 | -72.92562 | 18098 ft | 526 kts | 131° |
| 2026-04-30 12:42 | 40.11898 | -72.88775 | 19244 ft | 530 kts | 132° |
| 2026-04-30 12:42 | 40.09658 | -72.84984 | 20277 ft | 537 kts | 132° |
| 2026-04-30 12:42 | 40.07429 | -72.81219 | 21251 ft | 542 kts | 132° |
| 2026-04-30 12:42 | 40.05144 | -72.77361 | 22246 ft | 546 kts | 133° |
| 2026-04-30 12:43 | 40.02861 | -72.73514 | 23235 ft | 552 kts | 133° |
| 2026-04-30 12:43 | 40.00554 | -72.69630 | 24223 ft | 561 kts | 133° |
| 2026-04-30 12:43 | 39.98140 | -72.65577 | 25251 ft | 573 kts | 133° |
| 2026-04-30 12:43 | 39.95674 | -72.61441 | 26318 ft | 584 kts | 133° |
| 2026-04-30 12:44 | 39.93208 | -72.57308 | 27102 ft | 602 kts | 133° |
| 2026-04-30 12:44 | 39.90752 | -72.53196 | 27481 ft | 608 kts | 133° |
| 2026-04-30 12:44 | 39.88326 | -72.49136 | 27711 ft | 611 kts | 133° |
| 2026-04-30 12:44 | 39.85930 | -72.45130 | 27801 ft | 612 kts | 133° |
| 2026-04-30 12:45 | 39.83529 | -72.41130 | 27876 ft | 612 kts | 133° |
| 2026-04-30 12:45 | 39.81073 | -72.37036 | 27825 ft | 611 kts | 132° |
| 2026-04-30 12:45 | 39.78625 | -72.32972 | 27651 ft | 633 kts | 133° |
| 2026-04-30 12:45 | 39.76016 | -72.28648 | 27285 ft | 658 kts | 133° |
| 2026-04-30 12:46 | 39.73412 | -72.24304 | 28506 ft | 652 kts | 133° |
| 2026-04-30 12:46 | 39.70803 | -72.19980 | 29538 ft | 659 kts | 133° |
| 2026-04-30 12:46 | 39.68131 | -72.15578 | 29556 ft | 678 kts | 133° |
| 2026-04-30 12:46 | 39.65394 | -72.11056 | 29849 ft | 686 kts | 133° |
| 2026-04-30 12:47 | 39.62646 | -72.06500 | 30631 ft | 691 kts | 133° |
| 2026-04-30 12:47 | 39.59840 | -72.01899 | 30792 ft | 706 kts | 133° |
| 2026-04-30 12:47 | 39.56990 | -71.97208 | 30998 ft | 714 kts | 133° |
| 2026-04-30 12:47 | 39.54083 | -71.92416 | 31515 ft | 720 kts | 133° |
| 2026-04-30 12:48 | 39.51242 | -71.87772 | 31731 ft | 730 kts | 133° |
| 2026-04-30 12:48 | 39.48344 | -71.83021 | 32104 ft | 737 kts | 132° |
| 2026-04-30 12:48 | 39.45527 | -71.78194 | 32378 ft | 751 kts | 127° |
| 2026-04-30 12:48 | 39.43217 | -71.72627 | 32664 ft | 766 kts | 114° |
| 2026-04-30 12:49 | 39.41754 | -71.66450 | 32894 ft | 781 kts | 102° |
| 2026-04-30 12:49 | 39.41221 | -71.59910 | 33188 ft | 791 kts | 89° |
| 2026-04-30 12:49 | 39.41713 | -71.53065 | 33525 ft | 800 kts | 77° |
| 2026-04-30 12:49 | 39.43191 | -71.46662 | 33898 ft | 805 kts | 65° |
| 2026-04-30 12:50 | 39.45348 | -71.40149 | 34292 ft | 817 kts | 69° |
| 2026-04-30 12:50 | 39.46803 | -71.33504 | 34666 ft | 827 kts | 81° |
| 2026-04-30 12:50 | 39.47503 | -71.26659 | 35140 ft | 836 kts | 82° |
| 2026-04-30 12:50 | 39.48466 | -71.19604 | 35646 ft | 845 kts | 78° |
| 2026-04-30 12:51 | 39.49574 | -71.12137 | 36153 ft | 857 kts | 80° |
| 2026-04-30 12:51 | 39.50619 | -71.04451 | 36597 ft | 869 kts | 79° |
| 2026-04-30 12:51 | 39.51727 | -70.96780 | 37169 ft | 879 kts | 79° |
| 2026-04-30 12:51 | 39.52765 | -70.89318 | 37574 ft | 891 kts | 79° |
| 2026-04-30 12:52 | 39.53794 | -70.81961 | 38114 ft | 900 kts | 79° |
| 2026-04-30 12:52 | 39.54834 | -70.74535 | 38501 ft | 912 kts | 79° |
| 2026-04-30 12:52 | 39.55860 | -70.67076 | 39036 ft | 920 kts | 79° |
| 2026-04-30 12:52 | 39.56994 | -70.58884 | 39498 ft | 935 kts | 79° |
| 2026-04-30 12:53 | 39.58059 | -70.51132 | 40093 ft | 942 kts | 79° |
| 2026-04-30 12:53 | 39.59121 | -70.43336 | 40618 ft | 957 kts | 79° |
| 2026-04-30 12:53 | 39.60209 | -70.35343 | 41155 ft | 967 kts | 79° |
| 2026-04-30 12:53 | 39.61276 | -70.27436 | 41722 ft | 981 kts | 80° |
| 2026-04-30 12:54 | 39.62375 | -70.19222 | 42414 ft | 993 kts | 80° |
| 2026-04-30 12:54 | 39.63491 | -70.10886 | 43087 ft | 1009 kts | 80° |
| 2026-04-30 12:54 | 39.64618 | -70.02402 | 43944 ft | 1023 kts | 80° |
| 2026-04-30 12:54 | 39.65774 | -69.93620 | 44445 ft | 1036 kts | 80° |
| 2026-04-30 12:55 | 39.66904 | -69.85018 | 44798 ft | 1044 kts | 80° |
| 2026-04-30 12:55 | 39.68022 | -69.76427 | 45189 ft | 1053 kts | 80° |
| 2026-04-30 12:55 | 39.69153 | -69.67703 | 45470 ft | 1063 kts | 81° |
| 2026-04-30 12:55 | 39.70295 | -69.58806 | 45909 ft | 1069 kts | 80° |
| 2026-04-30 12:56 | 39.71464 | -69.49703 | 46156 ft | 1078 kts | 80° |
| 2026-04-30 12:56 | 39.72613 | -69.40671 | 46480 ft | 1085 kts | 81° |
| 2026-04-30 12:56 | 39.73766 | -69.31515 | 46817 ft | 1092 kts | 81° |
| 2026-04-30 12:56 | 39.74939 | -69.22193 | 47126 ft | 1099 kts | 81° |
| 2026-04-30 12:57 | 39.76109 | -69.12795 | 47374 ft | 1106 kts | 81° |
| 2026-04-30 12:57 | 39.77295 | -69.03213 | 47686 ft | 1113 kts | 81° |
| 2026-04-30 12:57 | 39.78477 | -68.93615 | 47993 ft | 1119 kts | 81° |
| 2026-04-30 12:57 | 39.79638 | -68.84094 | 48254 ft | 1127 kts | 81° |
| 2026-04-30 12:58 | 39.80827 | -68.74293 | 48626 ft | 1133 kts | 81° |
| 2026-04-30 12:58 | 39.82039 | -68.64207 | 48907 ft | 1141 kts | 81° |
| 2026-04-30 12:58 | 39.83268 | -68.53921 | 49300 ft | 1148 kts | 81° |
| 2026-04-30 12:58 | 39.84477 | -68.43712 | 49632 ft | 1158 kts | 81° |
| 2026-04-30 12:59 | 39.85662 | -68.33945 | 49857 ft | 1170 kts | 78° |
| 2026-04-30 12:59 | 39.87397 | -68.24333 | 49975 ft | 1177 kts | 71° |
| 2026-04-30 12:59 | 39.90286 | -68.14340 | 50180 ft | 1180 kts | 63° |
| 2026-04-30 12:59 | 39.94101 | -68.05231 | 50553 ft | 1179 kts | 54° |
| 2026-04-30 13:00 | 39.98637 | -67.97119 | 51005 ft | 1177 kts | 51° |
| 2026-04-30 13:00 | 40.03475 | -67.88619 | 51368 ft | 1174 kts | 58° |
| 2026-04-30 13:00 | 40.11057 | -67.69832 | 51618 ft | 1173 kts | 60° |
| 2026-04-30 13:01 | 40.15035 | -67.61057 | 51740 ft | 1175 kts | 57° |
| 2026-04-30 13:01 | 40.19022 | -67.52361 | 51909 ft | 1173 kts | 61° |
| 2026-04-30 13:01 | 40.22688 | -67.43611 | 52030 ft | 1172 kts | 59° |
| 2026-04-30 13:01 | 40.26492 | -67.35012 | 52115 ft | 1172 kts | 59° |
| 2026-04-30 13:02 | 40.34120 | -67.17428 | 52229 ft | 1171 kts | 60° |
| 2026-04-30 13:02 | 40.41866 | -66.99581 | 52309 ft | 1170 kts | 59° |
| 2026-04-30 13:03 | 40.49535 | -66.81844 | 52424 ft | 1170 kts | 61° |
| 2026-04-30 13:03 | 40.57445 | -66.63472 | 52551 ft | 1169 kts | 60° |
| 2026-04-30 13:04 | 40.65407 | -66.44748 | 52669 ft | 1169 kts | 60° |
| 2026-04-30 13:04 | 40.73355 | -66.25990 | 52763 ft | 1169 kts | 60° |
| 2026-04-30 13:05 | 40.81244 | -66.07290 | 52851 ft | 1169 kts | 60° |
| 2026-04-30 13:06 | 40.93057 | -65.79050 | 52941 ft | 1169 kts | 60° |
| 2026-04-30 13:06 | 41.00927 | -65.60088 | 52980 ft | 1169 kts | 60° |
| 2026-04-30 13:07 | 41.08702 | -65.41241 | 53015 ft | 1169 kts | 60° |
| 2026-04-30 13:07 | 41.16404 | -65.22448 | 53042 ft | 1170 kts | 61° |
| 2026-04-30 13:08 | 41.24123 | -65.03491 | 53084 ft | 1171 kts | 61° |
| 2026-04-30 13:08 | 41.31792 | -64.84539 | 53180 ft | 1170 kts | 61° |
| 2026-04-30 13:09 | 41.39426 | -64.65551 | 53260 ft | 1168 kts | 61° |
| 2026-04-30 13:09 | 41.46983 | -64.46635 | 53328 ft | 1167 kts | 61° |
| 2026-04-30 13:10 | 41.54577 | -64.27503 | 53382 ft | 1166 kts | 62° |
| 2026-04-30 13:10 | 41.62123 | -64.08364 | 53450 ft | 1165 kts | 62° |
| 2026-04-30 13:11 | 41.69628 | -63.89210 | 53523 ft | 1164 kts | 62° |
| 2026-04-30 13:11 | 41.77056 | -63.70121 | 53563 ft | 1164 kts | 62° |
| 2026-04-30 13:12 | 41.84514 | -63.50829 | 53596 ft | 1164 kts | 62° |
| 2026-04-30 13:12 | 41.91900 | -63.31597 | 53663 ft | 1163 kts | 63° |
| 2026-04-30 13:13 | 42.02892 | -63.02737 | 53753 ft | 1161 kts | 63° |
| 2026-04-30 13:14 | 42.13863 | -62.73633 | 53840 ft | 1161 kts | 63° |
| 2026-04-30 13:14 | 42.24691 | -62.44624 | 53946 ft | 1160 kts | 63° |
| 2026-04-30 13:15 | 42.35448 | -62.15503 | 54030 ft | 1160 kts | 63° |
| 2026-04-30 13:16 | 42.42550 | -61.96116 | 54077 ft | 1159 kts | 63° |
| 2026-04-30 13:16 | 42.49712 | -61.76424 | 54153 ft | 1158 kts | 63° |
| 2026-04-30 13:17 | 42.60324 | -61.46997 | 54210 ft | 1160 kts | 63° |
| 2026-04-30 13:18 | 42.70918 | -61.17302 | 54291 ft | 1160 kts | 64° |
| 2026-04-30 13:18 | 42.81336 | -60.87788 | 54347 ft | 1160 kts | 64° |
| 2026-04-30 13:19 | 42.88253 | -60.68016 | 54406 ft | 1160 kts | 64° |
| 2026-04-30 13:19 | 42.95108 | -60.48283 | 54441 ft | 1159 kts | 64° |
| 2026-04-30 13:20 | 43.02003 | -60.28292 | 54486 ft | 1160 kts | 65° |
| 2026-04-30 13:20 | 43.08777 | -60.08506 | 54539 ft | 1159 kts | 65° |
| 2026-04-30 13:21 | 43.15276 | -59.88370 | 54565 ft | 1159 kts | 65° |
| 2026-04-30 13:22 | 43.24780 | -59.58228 | 54604 ft | 1159 kts | 66° |
| 2026-04-30 13:22 | 43.34212 | -59.27803 | 54631 ft | 1160 kts | 67° |
| 2026-04-30 13:23 | 43.43520 | -58.97387 | 54685 ft | 1160 kts | 67° |
| 2026-04-30 13:24 | 43.55811 | -58.56661 | 54789 ft | 1159 kts | 67° |
| 2026-04-30 13:25 | 43.67961 | -58.15767 | 54876 ft | 1157 kts | 68° |
| 2026-04-30 13:26 | 43.82965 | -57.64337 | 54950 ft | 1157 kts | 68° |
| 2026-04-30 13:28 | 43.97687 | -57.12824 | 55002 ft | 1155 kts | 68° |
| 2026-04-30 13:28 | 44.06416 | -56.81769 | 55057 ft | 1154 kts | 68° |
| 2026-04-30 13:29 | 44.17906 | -56.40287 | 55141 ft | 1154 kts | 68° |
| 2026-04-30 13:31 | 44.32064 | -55.88176 | 55203 ft | 1153 kts | 69° |
| 2026-04-30 13:32 | 44.46013 | -55.35706 | 55184 ft | 1154 kts | 69° |
| 2026-04-30 13:33 | 44.56992 | -54.93582 | 55206 ft | 1153 kts | 70° |
| 2026-04-30 13:34 | 44.65175 | -54.61675 | 55261 ft | 1154 kts | 70° |
| 2026-04-30 13:35 | 44.75914 | -54.19134 | 55301 ft | 1154 kts | 70° |
| 2026-04-30 13:36 | 44.86492 | -53.76446 | 55367 ft | 1153 kts | 70° |
| 2026-04-30 13:36 | 44.94306 | -53.44389 | 55453 ft | 1153 kts | 70° |
| 2026-04-30 13:37 | 45.02119 | -53.11868 | 55521 ft | 1151 kts | 71° |
| 2026-04-30 13:38 | 45.09862 | -52.79168 | 55578 ft | 1149 kts | 71° |
| 2026-04-30 13:39 | 45.19801 | -52.36004 | 55621 ft | 1149 kts | 67° |
| 2026-04-30 13:40 | 45.30746 | -52.05713 | 55589 ft | 1148 kts | 69° |
| 2026-04-30 13:40 | 45.36492 | -51.84507 | 55614 ft | 1149 kts | 64° |
| 2026-04-30 13:41 | 45.42876 | -51.63423 | 55697 ft | 1148 kts | 66° |
| 2026-04-30 13:41 | 45.49212 | -51.42238 | 55705 ft | 1149 kts | 67° |
| 2026-04-30 13:42 | 45.55434 | -51.21030 | 55715 ft | 1149 kts | 67° |
| 2026-04-30 13:42 | 45.64808 | -50.88789 | 55718 ft | 1150 kts | 67° |
| 2026-04-30 13:43 | 45.70976 | -50.67346 | 55698 ft | 1150 kts | 67° |
| 2026-04-30 13:43 | 45.77161 | -50.45656 | 55707 ft | 1151 kts | 67° |
| 2026-04-30 13:44 | 45.83203 | -50.24287 | 55708 ft | 1151 kts | 68° |
| 2026-04-30 13:44 | 45.89198 | -50.02898 | 55724 ft | 1152 kts | 68° |
| 2026-04-30 13:45 | 45.98101 | -49.70896 | 55792 ft | 1150 kts | 66° |
| 2026-04-30 13:46 | 46.04046 | -49.49561 | 55839 ft | 1150 kts | 68° |
| 2026-04-30 13:46 | 46.09953 | -49.28091 | 55873 ft | 1151 kts | 68° |
| 2026-04-30 13:47 | 46.15866 | -49.06315 | 55899 ft | 1151 kts | 68° |
| 2026-04-30 13:47 | 46.21692 | -48.84665 | 55909 ft | 1151 kts | 68° |
| 2026-04-30 13:48 | 46.27507 | -48.62880 | 55925 ft | 1150 kts | 68° |
| 2026-04-30 13:48 | 46.33231 | -48.41247 | 55959 ft | 1150 kts | 68° |
| 2026-04-30 13:49 | 46.38904 | -48.19598 | 55984 ft | 1149 kts | 69° |
| 2026-04-30 13:49 | 46.44523 | -47.97953 | 56024 ft | 1150 kts | 69° |
| 2026-04-30 13:50 | 46.50095 | -47.76285 | 56076 ft | 1150 kts | 69° |
| 2026-04-30 13:50 | 46.58386 | -47.43668 | 56162 ft | 1150 kts | 69° |
| 2026-04-30 13:51 | 46.63850 | -47.21910 | 56222 ft | 1150 kts | 70° |
| 2026-04-30 13:51 | 46.69302 | -46.99995 | 56258 ft | 1150 kts | 70° |
| 2026-04-30 13:52 | 46.74716 | -46.78018 | 56213 ft | 1150 kts | 70° |
| 2026-04-30 13:52 | 46.80094 | -46.55970 | 56168 ft | 1150 kts | 70° |
| 2026-04-30 13:53 | 46.85446 | -46.33809 | 56143 ft | 1151 kts | 71° |
| 2026-04-30 13:53 | 46.90754 | -46.11613 | 56164 ft | 1152 kts | 71° |
| 2026-04-30 13:54 | 46.96011 | -45.89406 | 56190 ft | 1152 kts | 71° |
| 2026-04-30 13:54 | 47.01207 | -45.67234 | 56256 ft | 1151 kts | 71° |
| 2026-04-30 13:55 | 47.06361 | -45.45009 | 56306 ft | 1150 kts | 71° |
| 2026-04-30 13:55 | 47.11491 | -45.22660 | 56341 ft | 1150 kts | 72° |
| 2026-04-30 13:56 | 47.16542 | -45.00430 | 56373 ft | 1151 kts | 72° |
| 2026-04-30 13:56 | 47.21540 | -44.78193 | 56414 ft | 1151 kts | 72° |
| 2026-04-30 13:57 | 47.26507 | -44.55864 | 56447 ft | 1151 kts | 71° |
| 2026-04-30 13:57 | 47.31438 | -44.33464 | 56471 ft | 1151 kts | 72° |
| 2026-04-30 13:58 | 47.38779 | -43.99658 | 56499 ft | 1152 kts | 72° |
| 2026-04-30 13:59 | 47.43607 | -43.77119 | 56526 ft | 1153 kts | 72° |
| 2026-04-30 13:59 | 47.48438 | -43.54318 | 56556 ft | 1152 kts | 72° |
| 2026-04-30 14:00 | 47.53218 | -43.31493 | 56580 ft | 1152 kts | 73° |
| 2026-04-30 14:00 | 47.60268 | -42.97356 | 56624 ft | 1152 kts | 73° |
| 2026-04-30 14:01 | 47.64904 | -42.74587 | 56647 ft | 1152 kts | 73° |
| 2026-04-30 14:01 | 47.69498 | -42.51763 | 56673 ft | 1152 kts | 73° |
| 2026-04-30 14:02 | 47.74053 | -42.28862 | 56696 ft | 1152 kts | 74° |
| 2026-04-30 14:02 | 47.78542 | -42.06027 | 56724 ft | 1152 kts | 74° |
| 2026-04-30 14:03 | 47.82986 | -41.83149 | 56750 ft | 1153 kts | 73° |
| 2026-04-30 14:03 | 47.87355 | -41.60390 | 56779 ft | 1153 kts | 73° |
| 2026-04-30 14:04 | 47.91713 | -41.37408 | 56805 ft | 1152 kts | 73° |
| 2026-04-30 14:04 | 47.96008 | -41.14487 | 56834 ft | 1151 kts | 74° |
| 2026-04-30 14:05 | 48.00262 | -40.91495 | 56852 ft | 1151 kts | 74° |
| 2026-04-30 14:05 | 48.04457 | -40.68542 | 56835 ft | 1152 kts | 75° |
| 2026-04-30 14:06 | 48.10672 | -40.33988 | 56839 ft | 1153 kts | 75° |
| 2026-04-30 14:07 | 48.16798 | -39.99123 | 56853 ft | 1153 kts | 74° |
| 2026-04-30 14:08 | 48.22845 | -39.63982 | 56965 ft | 1152 kts | 74° |
| 2026-04-30 14:08 | 48.28775 | -39.29045 | 57039 ft | 1151 kts | 76° |
| 2026-04-30 14:09 | 48.32672 | -39.05496 | 57085 ft | 1152 kts | 76° |
| 2026-04-30 14:10 | 48.38395 | -38.70439 | 57067 ft | 1152 kts | 76° |
| 2026-04-30 14:10 | 48.42179 | -38.46823 | 57041 ft | 1153 kts | 76° |
| 2026-04-30 14:11 | 48.45909 | -38.23212 | 57036 ft | 1154 kts | 77° |
| 2026-04-30 14:11 | 48.49556 | -37.99789 | 57032 ft | 1154 kts | 77° |
| 2026-04-30 14:12 | 48.53162 | -37.76288 | 57076 ft | 1154 kts | 77° |
| 2026-04-30 14:12 | 48.56728 | -37.52703 | 57123 ft | 1154 kts | 77° |
| 2026-04-30 14:13 | 48.60221 | -37.29245 | 57158 ft | 1154 kts | 77° |
| 2026-04-30 14:13 | 48.63695 | -37.05561 | 57197 ft | 1154 kts | 77° |
| 2026-04-30 14:14 | 48.67129 | -36.81788 | 57227 ft | 1154 kts | 77° |
| 2026-04-30 14:14 | 48.70540 | -36.57796 | 57259 ft | 1154 kts | 77° |
| 2026-04-30 14:15 | 48.73887 | -36.33872 | 57281 ft | 1154 kts | 78° |
| 2026-04-30 14:15 | 48.77183 | -36.09930 | 57307 ft | 1154 kts | 78° |
| 2026-04-30 14:16 | 48.80413 | -35.86076 | 57345 ft | 1154 kts | 78° |
| 2026-04-30 14:16 | 48.83611 | -35.62058 | 57402 ft | 1153 kts | 78° |
| 2026-04-30 14:17 | 48.86769 | -35.37935 | 57450 ft | 1153 kts | 78° |
| 2026-04-30 14:17 | 48.89839 | -35.14076 | 57496 ft | 1153 kts | 79° |
| 2026-04-30 14:18 | 48.92882 | -34.90015 | 57524 ft | 1153 kts | 79° |
| 2026-04-30 14:18 | 48.97327 | -34.54078 | 57545 ft | 1153 kts | 79° |
| 2026-04-30 14:19 | 49.01644 | -34.18199 | 57570 ft | 1153 kts | 80° |
| 2026-04-30 14:20 | 49.04470 | -33.94173 | 57569 ft | 1155 kts | 80° |
| 2026-04-30 14:20 | 49.08610 | -33.58118 | 57611 ft | 1155 kts | 80° |
| 2026-04-30 14:21 | 49.11327 | -33.33887 | 57633 ft | 1154 kts | 81° |
| 2026-04-30 14:22 | 49.15296 | -32.97576 | 57661 ft | 1155 kts | 81° |
| 2026-04-30 14:22 | 49.19140 | -32.61301 | 57632 ft | 1156 kts | 81° |
| 2026-04-30 14:23 | 49.24096 | -32.12796 | 57646 ft | 1157 kts | 81° |
| 2026-04-30 14:24 | 49.27678 | -31.76368 | 57683 ft | 1157 kts | 81° |
| 2026-04-30 14:25 | 49.32287 | -31.27583 | 57821 ft | 1158 kts | 82° |
| 2026-04-30 14:26 | 49.35632 | -30.90682 | 57902 ft | 1160 kts | 82° |
| 2026-04-30 14:27 | 49.38870 | -30.53608 | 57891 ft | 1158 kts | 82° |
| 2026-04-30 14:27 | 49.40979 | -30.28675 | 57906 ft | 1158 kts | 83° |
| 2026-04-30 14:28 | 49.44009 | -29.91649 | 57926 ft | 1158 kts | 83° |
| 2026-04-30 14:28 | 49.45982 | -29.66887 | 57899 ft | 1160 kts | 83° |
| 2026-04-30 14:29 | 49.49775 | -29.17273 | 57906 ft | 1160 kts | 83° |
| 2026-04-30 14:31 | 49.54223 | -28.55094 | 57990 ft | 1159 kts | 83° |
| 2026-04-30 14:31 | 49.56741 | -28.17594 | 58044 ft | 1159 kts | 84° |
| 2026-04-30 14:32 | 49.59101 | -27.80654 | 58096 ft | 1158 kts | 84° |
| 2026-04-30 14:33 | 49.60607 | -27.56033 | 58146 ft | 1157 kts | 84° |
| 2026-04-30 14:33 | 49.62777 | -27.18892 | 58213 ft | 1157 kts | 85° |
| 2026-04-30 14:34 | 49.64162 | -26.94052 | 58260 ft | 1157 kts | 85° |
| 2026-04-30 14:34 | 49.65500 | -26.69094 | 58273 ft | 1157 kts | 85° |
| 2026-04-30 14:35 | 49.67394 | -26.31846 | 58319 ft | 1157 kts | 86° |
| 2026-04-30 14:36 | 49.68591 | -26.06998 | 58341 ft | 1157 kts | 86° |
| 2026-04-30 14:36 | 49.69737 | -25.82073 | 58347 ft | 1157 kts | 86° |
| 2026-04-30 14:37 | 49.70834 | -25.57030 | 58342 ft | 1157 kts | 85° |
| 2026-04-30 14:37 | 49.71866 | -25.32263 | 58356 ft | 1157 kts | 86° |
| 2026-04-30 14:38 | 49.72852 | -25.07314 | 58369 ft | 1158 kts | 86° |
| 2026-04-30 14:38 | 49.73774 | -24.82654 | 58377 ft | 1157 kts | 86° |
| 2026-04-30 14:39 | 49.74645 | -24.57918 | 58393 ft | 1157 kts | 86° |
| 2026-04-30 14:39 | 49.75465 | -24.33113 | 58407 ft | 1157 kts | 87° |
| 2026-04-30 14:40 | 49.76608 | -23.95502 | 58427 ft | 1157 kts | 87° |
| 2026-04-30 14:40 | 49.77301 | -23.70476 | 58464 ft | 1156 kts | 87° |
| 2026-04-30 14:41 | 49.77947 | -23.45164 | 58489 ft | 1157 kts | 87° |
| 2026-04-30 14:41 | 49.78534 | -23.19976 | 58495 ft | 1157 kts | 88° |
| 2026-04-30 14:42 | 49.79063 | -22.94956 | 58522 ft | 1158 kts | 88° |
| 2026-04-30 14:42 | 49.79537 | -22.69973 | 58544 ft | 1158 kts | 88° |
| 2026-04-30 14:43 | 49.79961 | -22.44771 | 58564 ft | 1158 kts | 88° |
| 2026-04-30 14:43 | 49.80329 | -22.19717 | 58587 ft | 1158 kts | 89° |
| 2026-04-30 14:44 | 49.80643 | -21.94692 | 58618 ft | 1157 kts | 89° |
| 2026-04-30 14:44 | 49.80901 | -21.69771 | 58643 ft | 1157 kts | 89° |
| 2026-04-30 14:45 | 49.81105 | -21.44959 | 58657 ft | 1158 kts | 89° |
| 2026-04-30 14:45 | 49.81257 | -21.19942 | 58676 ft | 1160 kts | 90° |
| 2026-04-30 14:46 | 49.81354 | -20.95154 | 58696 ft | 1160 kts | 90° |
| 2026-04-30 14:46 | 49.81400 | -20.70019 | 58718 ft | 1159 kts | 90° |
| 2026-04-30 14:47 | 49.81392 | -20.45126 | 58757 ft | 1158 kts | 90° |
| 2026-04-30 14:47 | 49.81329 | -20.19995 | 58767 ft | 1158 kts | 91° |
| 2026-04-30 14:48 | 49.81210 | -19.94649 | 58771 ft | 1160 kts | 91° |
| 2026-04-30 14:48 | 49.81038 | -19.69669 | 58818 ft | 1162 kts | 91° |
| 2026-04-30 14:49 | 49.80811 | -19.44497 | 58858 ft | 1161 kts | 91° |
| 2026-04-30 14:49 | 49.80533 | -19.19536 | 58877 ft | 1160 kts | 91° |
| 2026-04-30 14:50 | 49.80013 | -18.82013 | 58909 ft | 1160 kts | 91° |
| 2026-04-30 14:51 | 49.79390 | -18.44949 | 58896 ft | 1161 kts | 91° |
| 2026-04-30 14:52 | 49.78832 | -18.07783 | 58887 ft | 1162 kts | 92° |
| 2026-04-30 14:52 | 49.78113 | -17.70345 | 58941 ft | 1162 kts | 92° |
| 2026-04-30 14:53 | 49.77221 | -17.32745 | 59023 ft | 1162 kts | 92° |
| 2026-04-30 14:54 | 49.75804 | -16.82744 | 59099 ft | 1163 kts | 92° |
| 2026-04-30 14:55 | 49.74580 | -16.45542 | 59124 ft | 1166 kts | 92° |
| 2026-04-30 14:56 | 49.72627 | -15.95773 | 59192 ft | 1163 kts | 94° |
| 2026-04-30 14:57 | 49.71008 | -15.58545 | 59232 ft | 1163 kts | 93° |
| 2026-04-30 14:58 | 49.68713 | -15.08657 | 59266 ft | 1163 kts | 94° |
| 2026-04-30 14:58 | 49.69145 | -14.71470 | 58947 ft | 1164 kts | 76° |
| 2026-04-30 15:00 | 49.80405 | -14.11875 | 59026 ft | 1162 kts | 90° |
| 2026-04-30 15:00 | 49.81609 | -13.86857 | 59091 ft | 1163 kts | 76° |
| 2026-04-30 15:01 | 49.85587 | -13.62104 | 59141 ft | 1164 kts | 82° |
| 2026-04-30 15:01 | 49.89669 | -13.24705 | 59213 ft | 1165 kts | 81° |
| 2026-04-30 15:02 | 49.92417 | -12.99733 | 59241 ft | 1167 kts | 80° |
| 2026-04-30 15:03 | 49.99184 | -12.37068 | 59406 ft | 1168 kts | 80° |
| 2026-04-30 15:04 | 50.05622 | -11.74239 | 59869 ft | 1168 kts | 81° |
| 2026-04-30 15:05 | 50.09369 | -11.35976 | 59974 ft | 1185 kts | 81° |
| 2026-04-30 15:06 | 50.11797 | -11.10430 | 60006 ft | 1197 kts | 82° |
| 2026-04-30 15:07 | 50.16544 | -10.58606 | 59984 ft | 1210 kts | 82° |
| 2026-04-30 15:08 | 50.21070 | -10.06565 | 59970 ft | 1214 kts | 83° |
| 2026-04-30 15:09 | 50.26430 | -9.40985 | 59971 ft | 1215 kts | 83° |
| 2026-04-30 15:10 | 50.30438 | -8.88615 | 60001 ft | 1214 kts | 84° |
| 2026-04-30 15:11 | 50.36010 | -8.09918 | 59989 ft | 1215 kts | 83° |
| 2026-04-30 15:12 | 50.43141 | -7.72779 | 60259 ft | 1202 kts | 59° |
| 2026-04-30 15:13 | 50.52680 | -7.51474 | 60210 ft | 1201 kts | 52° |
| 2026-04-30 15:14 | 50.67350 | -7.04987 | 60120 ft | 1204 kts | 64° |
| 2026-04-30 15:14 | 50.79274 | -6.70565 | 60125 ft | 1204 kts | 67° |
| 2026-04-30 15:16 | 50.97929 | -6.10749 | 60083 ft | 1216 kts | 64° |
| 2026-04-30 15:17 | 51.12083 | -5.64735 | 59793 ft | 1172 kts | 64° |
| 2026-04-30 15:18 | 51.28348 | -5.10918 | 54486 ft | 1094 kts | 65° |
| 2026-04-30 15:19 | 51.38021 | -4.78323 | 51687 ft | 1068 kts | 65° |